Fsl New York — 9VBQ8 — position and weather

sailwx.info

Track history (hours):
 
Tides and Currents Weather Stations Pressure Air Temp Water Temp Dewpoint Dewpoint Depression Visibility Wind Speed Wind Dir Waves Ship Positions

Fsl New York

Last reported at 2015-May-05 20:28 UTC. Time now 2015-May-06 06:26 UTC.
Position N 52°08' E 003°35'.

Length 138 m; draft 6 m.

Type: Tanker. MMSI: 565174000.

Date/timePositionNaut miles runAvg speedWind from/ knotsBaromVisibWave heightAir tempDewpointWater temp
2015-May-05 20:28N 52°08' E 003°35'1212.8
2015-May-05 19:33N 52°03' E 003°53'1010.1
2015-May-05 18:33N 51°59' E 004°07'9 8.6
2015-May-05 17:33N 51°53' E 004°18'1 0.7
2015-May-05 16:33N 51°53' E 004°17'0 0.0
2015-May-05 15:33N 51°53' E 004°17'0 0.0
2015-May-05 00:33N 51°53' E 004°17'0 0.5
2015-May-04 23:33N 51°53' E 004°18'3 2.6
2015-May-04 22:33N 51°54' E 004°22'0 0.0
2015-May-04 11:18N 51°54' E 004°22'1 1.0
2015-May-04 10:22N 51°53' E 004°21'0 0.0
2015-May-04 09:28N 51°53' E 004°21'0 0.0
2015-May-03 19:23N 51°53' E 004°21'1 0.8
2015-May-03 18:33N 51°54' E 004°20'2 1.5
2015-May-03 17:31N 51°54' E 004°17'  
2015-May-01 13:27N 51°54' E 004°17'0 0.2
2015-May-01 12:33N 51°53' E 004°17'1 0.7
2015-May-01 11:33N 51°53' E 004°18'0 0.0
2015-May-01 10:31N 51°53' E 004°18'0 0.0
2015-May-01 09:19N 51°53' E 004°18'0 0.0
2015-May-01 08:31N 51°53' E 004°18'0 0.0
2015-May-01 07:31N 51°53' E 004°18'0 0.0
2015-May-01 06:22N 51°53' E 004°18'0 0.0
2015-May-01 04:22N 51°53' E 004°18'0 0.0
2015-May-01 03:16N 51°53' E 004°18'0 0.0
2015-May-01 02:28N 51°53' E 004°18'0 0.0
2015-May-01 01:25N 51°53' E 004°18'0 0.0
2015-May-01 00:22N 51°53' E 004°18'0 0.0
2015-Apr-30 23:28N 51°53' E 004°18'0 0.0
2015-Apr-30 22:28N 51°53' E 004°18'0 0.0
2015-Apr-30 21:31N 51°53' E 004°18'0 0.0
2015-Apr-30 20:19N 51°53' E 004°18'0 0.0
2015-Apr-30 19:31N 51°53' E 004°18'0 0.0
2015-Apr-30 18:25N 51°53' E 004°18'0 0.0
2015-Apr-30 17:31N 51°53' E 004°18'0 0.0
2015-Apr-30 16:25N 51°53' E 004°18'0 0.0
2015-Apr-30 15:25N 51°53' E 004°18'0 0.0
2015-Apr-30 14:28N 51°53' E 004°18'0 0.0
2015-Apr-30 13:28N 51°53' E 004°18'0 0.0
2015-Apr-30 12:31N 51°53' E 004°18'0 0.0
2015-Apr-30 11:31N 51°53' E 004°18'0 0.0
2015-Apr-30 10:20N 51°53' E 004°18'0 0.0
2015-Apr-30 09:25N 51°53' E 004°18'0 0.0
2015-Apr-30 08:33N 51°53' E 004°18'0 0.0
2015-Apr-30 07:33N 51°53' E 004°18'0 0.1
2015-Apr-30 06:33N 51°53' E 004°18'1 0.7
2015-Apr-30 05:33N 51°53' E 004°19'0 0.0
2015-Apr-30 04:33N 51°53' E 004°19'0 0.0
2015-Apr-29 11:34N 51°53' E 004°19'1 1.0
2015-Apr-29 10:34N 51°53' E 004°17'0 0.0
2015-Apr-29 09:34N 51°53' E 004°17'0 0.0
2015-Apr-28 10:12N 51°53' E 004°17'0 0.0
2015-Apr-28 09:33N 51°53' E 004°17'3 2.7
2015-Apr-28 08:34N 51°55' E 004°14'7 6.8
2015-Apr-28 07:33N 51°59' E 004°05'1110.3
2015-Apr-28 06:32N 51°60' E 003°48'10 9.4
2015-Apr-28 05:27N 51°57' E 003°32'1010.1
2015-Apr-28 04:31N 51°54' E 003°18'3511.7
2015-Apr-28 01:33N 51°39' E 002°27'1613.4
2015-Apr-28 00:21N 51°26' E 002°12'911.8
2015-Apr-27 23:33N 51°17' E 002°06'1312.5
2015-Apr-27 22:33N 51°09' E 001°51'1413.6
2015-Apr-27 21:33N 51°01' E 001°34'  
Track history (hours):
 
Tides and Currents Weather Stations Pressure Air Temp Water Temp Dewpoint Dewpoint Depression Visibility Wind Speed Wind Dir Waves Ship Positions

Fsl New York

Last reported at 2015-May-05 20:28 UTC. Time now 2015-May-06 06:26 UTC.
Position N 52°08' E 003°35'.

Length 138 m; draft 6 m.

Type: Tanker. MMSI: 565174000.

Date/timePositionNaut miles runAvg speedWind from/ knotsBaromVisibWave heightAir tempDewpointWater temp
2015-May-05 20:28N 52°08' E 003°35'1212.8
2015-May-05 19:33N 52°03' E 003°53'1010.1
2015-May-05 18:33N 51°59' E 004°07'9 8.6
2015-May-05 17:33N 51°53' E 004°18'1 0.7
2015-May-05 16:33N 51°53' E 004°17'0 0.0
2015-May-05 15:33N 51°53' E 004°17'0 0.0
2015-May-05 00:33N 51°53' E 004°17'0 0.5
2015-May-04 23:33N 51°53' E 004°18'3 2.6
2015-May-04 22:33N 51°54' E 004°22'0 0.0
2015-May-04 11:18N 51°54' E 004°22'1 1.0
2015-May-04 10:22N 51°53' E 004°21'0 0.0
2015-May-04 09:28N 51°53' E 004°21'0 0.0
2015-May-03 19:23N 51°53' E 004°21'1 0.8
2015-May-03 18:33N 51°54' E 004°20'2 1.5
2015-May-03 17:31N 51°54' E 004°17'  
2015-May-01 13:27N 51°54' E 004°17'0 0.2
2015-May-01 12:33N 51°53' E 004°17'1 0.7
2015-May-01 11:33N 51°53' E 004°18'0 0.0
2015-May-01 10:31N 51°53' E 004°18'0 0.0
2015-May-01 09:19N 51°53' E 004°18'0 0.0
2015-May-01 08:31N 51°53' E 004°18'0 0.0
2015-May-01 07:31N 51°53' E 004°18'0 0.0
2015-May-01 06:22N 51°53' E 004°18'0 0.0
2015-May-01 04:22N 51°53' E 004°18'0 0.0
2015-May-01 03:16N 51°53' E 004°18'0 0.0
2015-May-01 02:28N 51°53' E 004°18'0 0.0
2015-May-01 01:25N 51°53' E 004°18'0 0.0
2015-May-01 00:22N 51°53' E 004°18'0 0.0
2015-Apr-30 23:28N 51°53' E 004°18'0 0.0
2015-Apr-30 22:28N 51°53' E 004°18'0 0.0
2015-Apr-30 21:31N 51°53' E 004°18'0 0.0
2015-Apr-30 20:19N 51°53' E 004°18'0 0.0
2015-Apr-30 19:31N 51°53' E 004°18'0 0.0
2015-Apr-30 18:25N 51°53' E 004°18'0 0.0
2015-Apr-30 17:31N 51°53' E 004°18'0 0.0
2015-Apr-30 16:25N 51°53' E 004°18'0 0.0
2015-Apr-30 15:25N 51°53' E 004°18'0 0.0
2015-Apr-30 14:28N 51°53' E 004°18'0 0.0
2015-Apr-30 13:28N 51°53' E 004°18'0 0.0
2015-Apr-30 12:31N 51°53' E 004°18'0 0.0
2015-Apr-30 11:31N 51°53' E 004°18'0 0.0
2015-Apr-30 10:20N 51°53' E 004°18'0 0.0
2015-Apr-30 09:25N 51°53' E 004°18'0 0.0
2015-Apr-30 08:33N 51°53' E 004°18'0 0.0
2015-Apr-30 07:33N 51°53' E 004°18'0 0.1
2015-Apr-30 06:33N 51°53' E 004°18'1 0.7
2015-Apr-30 05:33N 51°53' E 004°19'0 0.0
2015-Apr-30 04:33N 51°53' E 004°19'0 0.0
2015-Apr-29 11:34N 51°53' E 004°19'1 1.0
2015-Apr-29 10:34N 51°53' E 004°17'0 0.0
2015-Apr-29 09:34N 51°53' E 004°17'0 0.0
2015-Apr-28 10:12N 51°53' E 004°17'0 0.0
2015-Apr-28 09:33N 51°53' E 004°17'3 2.7
2015-Apr-28 08:34N 51°55' E 004°14'7 6.8
2015-Apr-28 07:33N 51°59' E 004°05'1110.3
2015-Apr-28 06:32N 51°60' E 003°48'10 9.4
2015-Apr-28 05:27N 51°57' E 003°32'1010.1
2015-Apr-28 04:31N 51°54' E 003°18'3511.7
2015-Apr-28 01:33N 51°39' E 002°27'1613.4
2015-Apr-28 00:21N 51°26' E 002°12'911.8
2015-Apr-27 23:33N 51°17' E 002°06'1312.5
2015-Apr-27 22:33N 51°09' E 001°51'1413.6
2015-Apr-27 21:33N 51°01' E 001°34'  

Dump ship's entire track history